< < Back
Terminal Aerodrome Forecast


Current Version              Previous Versions:   1  2  3  4  5  6  7  8  9  

Terminal Aerodrome Forecast

857
FTUS42 KFFC 270330 AAB
TAFAHN
TAF AMD
KAHN 270330Z 2704/2724 VRB03KT P6SM SCT060 SCT120
     FM270700 00000KT 6SM BR SCT012 BKN120
     FM271100 21003KT 5SM BR BKN025 OVC100
     FM271500 25005KT P6SM VCSH SCT035 BKN120 PROB30 2716/2722 5SM
      -TSRA OVC025CB=



Latest METAR

448
SAUS70 KWBC 270454
MTRAHN
METAR KAHN 270451Z AUTO 00000KT 7SM SCT050 20/20 A3005 RMK AO2 SLP167
T02000200 403110189


USA.gov is the U.S. government's official web portal to all federal, state and local government web resources and services.